Merced Regional Macready Field
KMCE : now visible

Airfield :











YOU CAN JOIN US ON...

 
LOGIN :

Register | Disclaimer

   EN    FR    IT 

 









Legend :    VFR   Marginal VFR   IFR   Intensive IFR   Very Intensive IFR
Visi :
Ceiling :
>= 8 km
>= 3000ft
5 to 8 km
1000 to 3000 ft
1500m to 5 km
500 to 1000 ft
800 to 1500m
200 to 500 ft
< 800m
< 200 ft
Symbols :   Thunderstorms  Fog  Heavy snow  Heavy precipitations  Wind > 20 kt






- Airport Elevation : 155 ft
- IATA code : MCE


KMCE - Merced Regional Macready Field

CURRENT METAR :
  • 211353Z AUTO 00000KT 10SM CLR 11/07 A3003 RMK AO2 SLP168 T01110067

EXPIRED METARs :
  • 211253Z AUTO 28003KT 10SM CLR 11/06 A3002 RMK AO2 SLP164 T01110061
  • 211153Z AUTO 27003KT 10SM CLR 12/07 A3002 RMK AO2 SLP166 T01170067 10178 20100 56004
  • 211053Z AUTO 25003KT 10SM CLR 12/07 A3002 RMK AO2 SLP166 T01220072
  • 210953Z AUTO 00000KT 10SM CLR 13/08 A3002 RMK AO2 SLP166 T01280078

TAF KMCE
Valid from the 21 at 12:00 until the 22 at 12:00 UTC


211120Z 2112/2212 27006KT P6SM SKC
KZOA FIR / North America



MET'MAP, your aeronautical weather chart ! - Copyright ORBIFLY December 2007 - Disclaimer

ORBIFLY MET'MAP TEAM :

Programming & Development : Alexandra Zaïnal
Original concept : Baudouin d'Aumeries
Technical & hardware support : Manuel Goepfert
Assistance : Marc-Olivier Méhu




SOURCES & CREDITS :

   NOAA       Earth
Advisory